Airfield :
LOGIN :

Register | Disclaimer

   EN    FR    IT 

 










Legend :    VFR   Marginal VFR   IFR   Intensive IFR   Very Intensive IFR
Visi :
Ceiling :
>= 8 km
>= 3000ft
5 to 8 km
1000 to 3000 ft
1500m to 5 km
500 to 1000 ft
800 to 1500m
200 to 500 ft
< 800m
< 200 ft
Symbols :   Thunderstorms  Fog  Heavy snow  Heavy precipitations  Wind > 20 kt
SIGMETs :     Misc.  Thunderstorms  Icing  Turbulence  Mountain Waves  Volcanic Ashes






- Airport Elevation : 284 ft


EGUW - RAF Wattisham

CURRENT METAR :
  • 151420Z 22006KT 9999 BKN018 SCT150 14/10 Q1004 NOSIG RMK WHT WHT

EXPIRED METARs :
  • 151350Z 23006KT 9999 BKN015 SCT150 15/11 Q1004 WHT NOSIG RMK WHT WHT
  • 151320Z 25006KT 9999 BKN014 SCT150 14/11 Q1004 BECMG BKN018 RMK GRN BECMG WHT
  • 151250Z 27008KT 9999 BKN012 SCT150 13/11 Q1003 BECMG BKN018 RMK GRN BCMG WHT
  • 151220Z 25008KT 9999 BKN012 SCT150 13/10 Q1004 BECMG BKN018 RMK GRN BECMG WHT
  • 151150Z 27008KT 9999 BKN009 12/10 Q1004 BECMG BKN018 RMK GRN BECMG WHT

TAF TAF EGUW
Valid from the 15 at 15:00 until the 16 at 00:00 UTC


151334Z 1515/1524 22007KT 9999 BKN015
BECMG 1516/1519 SCT025
PROB30 1522/1524 7000 BR



MET'MAP, your aeronautical weather chart ! - Copyright ORBIFLY December 2007 - Disclaimer

ORBIFLY MET'MAP TEAM :

Programming & Development : Alexandra Zaïnal
Concept & Development : Baudouin d'Aumeries
Co-Development & Prog : Marc-Olivier Méhu
Technical & hardware support : Manuel Goepfert

Contact : metmap@orbifly.com




SOURCES & CREDITS :

   NOAA